createdAt,value
2019-02-22T00:02:14.085Z,101135.18
2019-02-22T00:04:44.613Z,101129.20
2019-02-22T00:07:15.540Z,101137.11
2019-02-22T00:09:49.441Z,101137.00
2019-02-22T00:12:18.327Z,101133.84
2019-02-22T00:14:48.977Z,101127.02
2019-02-22T00:17:19.040Z,101126.86
2019-02-22T00:19:54.550Z,101124.89
2019-02-22T00:22:24.920Z,101120.44
2019-02-22T00:24:55.779Z,101123.92
2019-02-22T00:27:26.411Z,101124.53
2019-02-22T00:29:57.168Z,101115.50
2019-02-22T00:32:27.715Z,101120.15
2019-02-22T00:34:58.493Z,101121.53
2019-02-22T00:37:29.365Z,101112.81
2019-02-22T00:39:59.696Z,101109.27
2019-02-22T00:42:30.321Z,101114.35
2019-02-22T00:45:00.441Z,101109.13
2019-02-22T00:47:31.028Z,101107.58
2019-02-22T00:50:01.090Z,101111.37
2019-02-22T00:52:33.456Z,101111.95
2019-02-22T00:55:05.099Z,101117.23
2019-02-22T00:57:35.475Z,101132.57
2019-02-22T01:00:08.494Z,101126.34
2019-02-22T01:02:38.807Z,101111.02
2019-02-22T01:05:09.579Z,101117.84
2019-02-22T01:07:40.229Z,101126.38
2019-02-22T01:10:11.086Z,101125.05
2019-02-22T01:12:41.839Z,101129.09
2019-02-22T01:15:12.575Z,101130.09
2019-02-22T01:17:43.141Z,101144.47
2019-02-22T01:20:14.005Z,101129.55
2019-02-22T01:22:44.752Z,101134.06
2019-02-22T01:25:15.490Z,101127.31
2019-02-22T01:27:46.039Z,101129.64
2019-02-22T01:30:16.910Z,101132.35
2019-02-22T01:32:47.665Z,101133.54
2019-02-22T01:35:18.420Z,101139.19
2019-02-22T01:37:49.070Z,101142.86
2019-02-22T01:40:19.806Z,101140.18
2019-02-22T01:42:50.583Z,101148.70
2019-02-22T01:45:21.335Z,101149.66
2019-02-22T01:47:51.981Z,101152.59
2019-02-22T01:50:23.558Z,101142.72
2019-02-22T01:52:54.821Z,101139.38
2019-02-22T01:55:25.660Z,101152.00
2019-02-22T01:57:56.328Z,101152.77
2019-02-22T02:00:27.184Z,101148.30
2019-02-22T02:02:57.940Z,101153.95
2019-02-22T02:05:28.692Z,101156.29
2019-02-22T02:07:59.344Z,101154.35
2019-02-22T02:10:30.078Z,101151.84
2019-02-22T02:13:00.955Z,101160.34
2019-02-22T02:15:31.710Z,101153.00
2019-02-22T02:18:02.373Z,101156.27
2019-02-22T02:20:33.216Z,101161.14
2019-02-22T02:23:03.969Z,101166.55
2019-02-22T02:25:34.722Z,101159.56
2019-02-22T02:28:05.585Z,101148.70
2019-02-22T02:30:36.435Z,101156.27
2019-02-22T02:33:07.070Z,101147.97
2019-02-22T02:35:37.738Z,101154.95
2019-02-22T02:38:08.603Z,101158.25
2019-02-22T02:40:39.357Z,101146.80
2019-02-22T02:43:10.102Z,101159.02
2019-02-22T02:45:40.755Z,101157.29
2019-02-22T02:48:11.507Z,101153.03
2019-02-22T02:50:42.244Z,101147.42
2019-02-22T02:53:13.937Z,101142.17
2019-02-22T02:55:44.892Z,101140.84
2019-02-22T02:58:15.547Z,101146.45
2019-02-22T03:00:46.402Z,101151.48
2019-02-22T03:03:17.258Z,101140.45
2019-02-22T03:05:52.494Z,101127.46
2019-02-22T03:08:24.787Z,101127.46
2019-02-22T03:10:55.638Z,101129.78
2019-02-22T03:13:26.565Z,101132.49
2019-02-22T03:15:57.370Z,101129.22
2019-02-22T03:18:28.120Z,101128.05
2019-02-22T03:20:58.963Z,101130.21
2019-02-22T03:23:29.630Z,101151.12
2019-02-22T03:26:00.289Z,101144.35
2019-02-22T03:28:30.934Z,101143.75
2019-02-22T03:31:01.791Z,101139.13
2019-02-22T03:33:32.445Z,101143.78
2019-02-22T03:36:03.196Z,101137.78
2019-02-22T03:38:33.848Z,101147.27
2019-02-22T03:41:04.685Z,101144.56
2019-02-22T03:43:35.455Z,101141.86
2019-02-22T03:46:06.210Z,101137.81
2019-02-22T03:48:36.861Z,101139.95
2019-02-22T03:51:07.700Z,101147.30
2019-02-22T03:53:41.133Z,101146.52
2019-02-22T03:56:12.087Z,101150.37
2019-02-22T03:58:42.851Z,101149.23
2019-02-22T04:01:13.701Z,101138.97
2019-02-22T04:03:44.559Z,101150.39
2019-02-22T04:06:15.292Z,101143.80
2019-02-22T04:08:45.961Z,101154.45
2019-02-22T04:11:16.817Z,101150.41
2019-02-22T04:13:47.573Z,101153.11
2019-02-22T04:16:18.323Z,101160.05
2019-02-22T04:18:49.082Z,101159.47
2019-02-22T04:21:19.916Z,101147.30
2019-02-22T04:23:50.588Z,101153.47
2019-02-22T04:26:21.224Z,101150.78
2019-02-22T04:28:53.506Z,101122.73
2019-02-22T04:31:24.379Z,101154.27
2019-02-22T04:33:55.135Z,101154.47
2019-02-22T04:36:25.772Z,101153.09
2019-02-22T04:38:56.541Z,101164.72
2019-02-22T04:41:27.312Z,101160.26
2019-02-22T04:43:57.946Z,101167.80
2019-02-22T04:46:28.630Z,101166.44
2019-02-22T04:48:59.232Z,101162.56
2019-02-22T04:51:29.885Z,101167.23
2019-02-22T04:54:01.683Z,101170.70
2019-02-22T04:56:32.618Z,101162.19
2019-02-22T04:59:03.397Z,101169.91
2019-02-22T05:01:34.142Z,101171.66
2019-02-22T05:04:03.901Z,101179.02
2019-02-22T05:06:34.426Z,101172.43
2019-02-22T05:09:05.545Z,101184.42
2019-02-22T05:11:35.933Z,101177.45
2019-02-22T05:14:06.773Z,101181.50
2019-02-22T05:16:37.424Z,101173.75
2019-02-22T05:19:08.191Z,101174.34
2019-02-22T05:21:38.725Z,101173.56
2019-02-22T05:24:09.596Z,101180.53
2019-02-22T05:26:40.435Z,101172.19
2019-02-22T05:29:11.188Z,101170.42
2019-02-22T05:31:41.866Z,101177.78
2019-02-22T05:34:12.512Z,101174.89
2019-02-22T05:36:44.250Z,101175.05
2019-02-22T05:39:19.103Z,101175.63
2019-02-22T05:41:47.110Z,101164.19
2019-02-22T05:44:17.985Z,101172.92
2019-02-22T05:46:59.697Z,101179.51
2019-02-22T05:49:22.366Z,101182.20
2019-02-22T05:51:52.988Z,101181.02
2019-02-22T05:54:24.901Z,101176.37
2019-02-22T05:56:55.946Z,101181.41
2019-02-22T05:59:26.712Z,101182.14
2019-02-22T06:01:57.454Z,101187.32
2019-02-22T06:04:28.310Z,101186.10
2019-02-22T06:06:59.047Z,101183.81
2019-02-22T06:09:29.814Z,101182.61
2019-02-22T06:12:00.469Z,101181.42
2019-02-22T06:14:31.334Z,101186.20
2019-02-22T06:17:13.953Z,101186.39
2019-02-22T06:19:34.570Z,101188.06
2019-02-22T06:22:05.224Z,101191.83
2019-02-22T06:24:36.078Z,101188.53
2019-02-22T06:27:06.729Z,101200.73
2019-02-22T06:29:39.216Z,101200.67
2019-02-22T06:32:09.865Z,101202.26
2019-02-22T06:34:40.837Z,101202.69
2019-02-22T06:37:11.589Z,101198.03
2019-02-22T06:39:42.237Z,101203.03
2019-02-22T06:42:12.991Z,101201.52
2019-02-22T06:44:43.949Z,101206.72
2019-02-22T06:47:13.596Z,101200.83
2019-02-22T06:49:44.599Z,101201.06
2019-02-22T06:52:15.494Z,101207.69
2019-02-22T06:54:47.048Z,101210.17
2019-02-22T06:57:23.967Z,101204.39
2019-02-22T06:59:54.609Z,101204.39
2019-02-22T07:02:26.590Z,101199.09
2019-02-22T07:05:07.877Z,101198.19
2019-02-22T07:07:38.734Z,101198.62
2019-02-22T07:10:10.782Z,101197.71
2019-02-22T07:12:42.782Z,101198.19
2019-02-22T07:15:13.331Z,101194.38
2019-02-22T07:17:43.315Z,101195.54
2019-02-22T07:20:13.714Z,101200.80
2019-02-22T07:22:44.467Z,101203.23
2019-02-22T07:25:15.019Z,101196.95
2019-02-22T07:27:45.891Z,101198.45
2019-02-22T07:30:16.645Z,101200.39
2019-02-22T07:32:47.436Z,101201.21
2019-02-22T07:35:18.154Z,101207.08
2019-02-22T07:37:49.008Z,101205.38
2019-02-22T07:40:20.135Z,101204.90
2019-02-22T07:42:50.821Z,101202.77
2019-02-22T07:45:21.679Z,101201.88
2019-02-22T07:47:52.433Z,101202.52
2019-02-22T07:50:23.082Z,101209.69
2019-02-22T07:52:53.939Z,101210.61
2019-02-22T07:55:25.699Z,101210.86
2019-02-22T07:57:56.689Z,101214.70
2019-02-22T08:00:28.658Z,101222.98
2019-02-22T08:02:59.408Z,101211.84
2019-02-22T08:05:30.265Z,101208.98
2019-02-22T08:08:01.123Z,101208.38
2019-02-22T08:10:31.878Z,101208.19
2019-02-22T08:13:02.526Z,101208.19
2019-02-22T08:15:35.418Z,101212.66
2019-02-22T08:18:05.772Z,101213.68
2019-02-22T08:20:36.534Z,101218.53
2019-02-22T08:23:07.183Z,101216.13
2019-02-22T08:25:38.034Z,101211.73
2019-02-22T08:28:08.792Z,101216.98
2019-02-22T08:30:39.647Z,101214.90
2019-02-22T08:33:10.499Z,101224.55
2019-02-22T08:35:41.357Z,101216.33
2019-02-22T08:38:12.097Z,101220.65
2019-02-22T08:40:42.968Z,101228.81
2019-02-22T08:43:13.822Z,101217.22
2019-02-22T08:45:44.577Z,101219.21
2019-02-22T08:48:15.310Z,101225.86
2019-02-22T08:50:46.290Z,101230.56
2019-02-22T08:53:17.025Z,101222.06
2019-02-22T08:55:47.796Z,101226.98
2019-02-22T08:58:18.857Z,101222.36
2019-02-22T09:00:49.612Z,101225.69
2019-02-22T09:03:20.243Z,101229.23
2019-02-22T09:05:50.999Z,101221.60
2019-02-22T09:08:21.871Z,101222.61
2019-02-22T09:11:00.482Z,101228.28
2019-02-22T09:13:25.018Z,101230.00
2019-02-22T09:15:55.752Z,101225.97
2019-02-22T09:18:26.524Z,101222.36
2019-02-22T09:20:57.159Z,101222.55
2019-02-22T09:23:27.149Z,101215.47
2019-02-22T09:25:57.660Z,101212.46
2019-02-22T09:28:28.311Z,101209.02
2019-02-22T09:30:59.048Z,101209.96
2019-02-22T09:33:29.924Z,101205.03
2019-02-22T09:36:00.574Z,101205.97
2019-02-22T09:38:30.526Z,101205.41
2019-02-22T09:41:00.940Z,101214.74
2019-02-22T09:43:31.019Z,101200.61
2019-02-22T09:46:01.423Z,101203.56
2019-02-22T09:48:31.606Z,101205.95
2019-02-22T09:51:02.131Z,101209.23
2019-02-22T09:53:32.890Z,101208.39
2019-02-22T09:56:04.540Z,101203.73
2019-02-22T09:58:35.396Z,101201.30
2019-02-22T10:01:06.066Z,101209.36
2019-02-22T10:03:36.803Z,101216.95
2019-02-22T10:06:07.577Z,101210.02
2019-02-22T10:08:38.208Z,101213.58
2019-02-22T10:11:08.186Z,101213.77
2019-02-22T10:13:38.710Z,101208.50
2019-02-22T10:16:09.364Z,101201.59
2019-02-22T10:18:39.424Z,101211.84
2019-02-22T10:21:09.953Z,101212.16
2019-02-22T10:23:40.012Z,101215.88
2019-02-22T10:26:10.415Z,101211.58
2019-02-22T10:28:40.487Z,101215.84
2019-02-22T10:31:10.910Z,101211.37
2019-02-22T10:33:41.084Z,101206.43
2019-02-22T10:36:11.609Z,101211.22
2019-02-22T10:38:42.362Z,101211.95
2019-02-22T10:41:12.998Z,101213.27
2019-02-22T10:43:43.076Z,101208.17
2019-02-22T10:46:13.602Z,101209.19
2019-02-22T10:48:43.553Z,101209.98
2019-02-22T10:51:14.149Z,101213.84
2019-02-22T10:53:44.927Z,101219.20
2019-02-22T10:56:16.514Z,101219.02
2019-02-22T10:58:47.031Z,101217.45
2019-02-22T11:01:17.592Z,101224.92
2019-02-22T11:03:48.468Z,101217.64
2019-02-22T11:06:19.206Z,101218.34
2019-02-22T11:08:49.958Z,101223.91
2019-02-22T11:11:20.626Z,101217.22
2019-02-22T11:13:50.587Z,101228.67
2019-02-22T11:16:21.094Z,101218.73
2019-02-22T11:18:51.850Z,101228.88
2019-02-22T11:21:21.612Z,101229.30
2019-02-22T11:23:52.143Z,101233.37
2019-02-22T11:26:22.782Z,101226.83
2019-02-22T11:28:52.860Z,101226.83
2019-02-22T11:31:23.368Z,101226.68
2019-02-22T11:33:53.917Z,101221.84
2019-02-22T11:36:24.672Z,101223.34
2019-02-22T11:38:55.545Z,101221.98
2019-02-22T11:41:26.300Z,101232.31
2019-02-22T11:43:56.947Z,101233.07
2019-02-22T11:46:27.808Z,101233.11
2019-02-22T11:48:58.438Z,101231.92
2019-02-22T11:51:29.209Z,101232.70
2019-02-22T11:53:59.842Z,101234.63
2019-02-22T11:56:31.638Z,101237.55
2019-02-22T11:59:02.800Z,101241.48
2019-02-22T12:01:33.434Z,101246.73
2019-02-22T12:04:04.206Z,101246.58
2019-02-22T12:06:34.857Z,101259.84
2019-02-22T12:09:05.699Z,101254.40
2019-02-22T12:11:36.348Z,101253.27
2019-02-22T12:14:07.124Z,101248.77
2019-02-22T12:16:37.770Z,101262.55
2019-02-22T12:19:08.628Z,101251.83
2019-02-22T12:21:39.277Z,101267.30
2019-02-22T12:24:10.032Z,101262.70
2019-02-22T12:26:40.689Z,101265.37
2019-02-22T12:29:11.543Z,101264.11
2019-02-22T12:31:42.178Z,101272.05
2019-02-22T12:34:12.930Z,101272.72
2019-02-22T12:36:43.598Z,101281.85
2019-02-22T12:39:14.444Z,101282.16
2019-02-22T12:41:45.087Z,101283.98
2019-02-22T12:44:15.841Z,101284.48
2019-02-22T12:46:46.509Z,101296.70
2019-02-22T12:49:17.347Z,101287.42
2019-02-22T12:51:48.119Z,101297.70
2019-02-22T12:54:18.861Z,101306.14
2019-02-22T12:56:57.578Z,101296.80
2019-02-22T12:59:23.141Z,101303.36
2019-02-22T13:01:53.999Z,101300.20
2019-02-22T13:04:24.751Z,101298.70
2019-02-22T13:06:55.405Z,101300.31
2019-02-22T13:09:36.434Z,101304.58
2019-02-22T13:11:58.343Z,101313.73
2019-02-22T13:14:29.099Z,101310.04
2019-02-22T13:16:59.730Z,101319.80
2019-02-22T13:19:30.605Z,101317.84
2019-02-22T13:22:01.462Z,101312.05
2019-02-22T13:24:32.198Z,101316.89
2019-02-22T13:27:02.749Z,101324.06
2019-02-22T13:29:33.604Z,101328.72
2019-02-22T13:32:04.254Z,101336.88
2019-02-22T13:34:35.010Z,101328.37
2019-02-22T13:37:05.558Z,101328.97
2019-02-22T13:39:35.638Z,101334.98
2019-02-22T13:42:06.160Z,101334.40
2019-02-22T13:44:36.692Z,101339.44
2019-02-22T13:47:07.572Z,101351.84
2019-02-22T13:49:38.302Z,101354.75
2019-02-22T13:52:09.058Z,101354.16
2019-02-22T13:54:39.607Z,101359.98
2019-02-22T13:57:11.283Z,101355.53
2019-02-22T13:59:41.849Z,101361.16
2019-02-22T14:02:12.585Z,101359.40
2019-02-22T14:04:43.347Z,101372.00
2019-02-22T14:07:14.109Z,101360.77
2019-02-22T14:09:44.742Z,101364.45
2019-02-22T14:12:15.599Z,101367.92
2019-02-22T14:14:46.370Z,101376.86
2019-02-22T14:17:17.106Z,101371.25
2019-02-22T14:19:47.654Z,101378.39
2019-02-22T14:22:17.735Z,101381.49
2019-02-22T14:24:48.244Z,101382.83
2019-02-22T14:27:18.894Z,101388.08
2019-02-22T14:29:49.752Z,101404.53
2019-02-22T14:32:20.400Z,101404.73
2019-02-22T14:34:51.172Z,101406.67
2019-02-22T14:37:21.886Z,101409.58
2019-02-22T14:40:02.369Z,101413.23
2019-02-22T14:42:25.276Z,101410.94
2019-02-22T14:44:55.909Z,101414.61
2019-02-22T14:47:26.664Z,101415.35
2019-02-22T14:49:57.540Z,101415.94
2019-02-22T14:52:28.171Z,101426.95
2019-02-22T14:54:58.842Z,101423.30
2019-02-22T14:57:30.614Z,101425.80
2019-02-22T15:00:01.560Z,101431.80
2019-02-22T15:02:32.207Z,101447.48
2019-02-22T15:05:02.980Z,101443.41
2019-02-22T15:07:33.618Z,101451.38
2019-02-22T15:10:06.054Z,101454.66
2019-02-22T15:12:36.469Z,101461.43
2019-02-22T15:15:17.658Z,101474.78
2019-02-22T15:17:49.618Z,101465.48
2019-02-22T15:20:20.372Z,101477.67
2019-02-22T15:22:51.023Z,101488.28
2019-02-22T15:25:21.676Z,101493.09
2019-02-22T15:27:52.427Z,101503.38
2019-02-22T15:30:23.417Z,101500.81
2019-02-22T15:32:54.163Z,101505.24
2019-02-22T15:35:25.014Z,101510.66
2019-02-22T15:37:55.751Z,101516.69
2019-02-22T15:40:26.503Z,101522.64
2019-02-22T15:42:57.185Z,101527.69
2019-02-22T15:45:28.034Z,101529.42
2019-02-22T15:47:58.801Z,101528.64
2019-02-22T15:50:29.520Z,101543.89
2019-02-22T15:53:00.187Z,101556.25
2019-02-22T15:55:31.027Z,101548.53
2019-02-22T15:58:02.717Z,101556.61
2019-02-22T16:00:35.082Z,101563.80
2019-02-22T16:03:05.437Z,101568.02
2019-02-22T16:05:37.748Z,101569.37
2019-02-22T16:08:08.375Z,101579.78
2019-02-22T16:10:39.173Z,101580.92
2019-02-22T16:13:09.903Z,101592.91
2019-02-22T16:15:40.866Z,101589.63
2019-02-22T16:18:11.511Z,101595.97
2019-02-22T16:20:42.366Z,101595.70
2019-02-22T16:23:13.001Z,101609.28
2019-02-22T16:25:43.669Z,101619.22
2019-02-22T16:28:15.844Z,101625.17
2019-02-22T16:30:46.388Z,101632.11
2019-02-22T16:33:17.142Z,101626.25
2019-02-22T16:35:49.025Z,101635.01
2019-02-22T16:38:19.797Z,101635.01
2019-02-22T16:40:50.544Z,101634.80
2019-02-22T16:43:21.401Z,101633.49
2019-02-22T16:45:52.258Z,101638.28
2019-02-22T16:48:22.897Z,101623.61
2019-02-22T16:50:53.545Z,101631.44
2019-02-22T16:53:24.298Z,101631.44
2019-02-22T16:55:55.170Z,101641.90
2019-02-22T16:58:27.545Z,101658.11
2019-02-22T17:00:58.521Z,101654.98
2019-02-22T17:03:29.153Z,101668.92
2019-02-22T17:05:59.930Z,101668.92
2019-02-22T17:08:30.575Z,101658.62
2019-02-22T17:11:00.537Z,101676.83
2019-02-22T17:13:31.063Z,101673.14
2019-02-22T17:16:01.802Z,101685.52
2019-02-22T17:18:32.350Z,101689.79
2019-02-22T17:21:03.206Z,101691.34
2019-02-22T17:23:33.973Z,101688.83
2019-02-22T17:26:05.295Z,101691.20
2019-02-22T17:28:35.976Z,101691.20
2019-02-22T17:31:06.729Z,101704.70
2019-02-22T17:33:37.501Z,101716.81
2019-02-22T17:36:08.339Z,101704.45
2019-02-22T17:38:39.092Z,101721.50
2019-02-22T17:41:09.845Z,101721.50
2019-02-22T17:43:40.396Z,101718.80
2019-02-22T17:46:11.900Z,101728.83
2019-02-22T17:48:42.311Z,101727.45
2019-02-22T17:51:13.085Z,101730.84
2019-02-22T17:53:43.940Z,101734.69
2019-02-22T17:56:14.797Z,101737.03
2019-02-22T17:58:46.470Z,101741.08
2019-02-22T18:01:17.326Z,101740.20
2019-02-22T18:03:47.964Z,101754.09
2019-02-22T18:06:18.849Z,101754.09
2019-02-22T18:08:49.484Z,101760.03
2019-02-22T18:11:20.240Z,101764.30
2019-02-22T18:13:50.888Z,101763.13
2019-02-22T18:16:21.747Z,101759.28
2019-02-22T18:18:52.480Z,101766.93
2019-02-22T18:21:23.252Z,101772.77
2019-02-22T18:23:53.905Z,101782.62
2019-02-22T18:26:26.296Z,101781.86
2019-02-22T18:28:56.928Z,101782.12
2019-02-22T18:31:27.702Z,101782.12
2019-02-22T18:33:58.353Z,101788.09
2019-02-22T18:36:29.195Z,101794.81
2019-02-22T18:38:59.962Z,101801.00
2019-02-22T18:41:30.718Z,101812.99
2019-02-22T18:44:01.368Z,101812.99
2019-02-22T18:46:32.207Z,101823.65
2019-02-22T18:49:02.857Z,101815.76
2019-02-22T18:51:33.630Z,101820.05
2019-02-22T18:54:16.127Z,101824.92
2019-02-22T18:59:35.855Z,101823.39
2019-02-22T19:02:06.900Z,101835.45
2019-02-22T19:04:37.670Z,101842.22
2019-02-22T19:07:08.323Z,101836.42
2019-02-22T19:09:39.161Z,101840.91
2019-02-22T19:12:09.814Z,101848.86
2019-02-22T19:14:40.568Z,101847.19
2019-02-22T19:17:11.319Z,101852.91
2019-02-22T19:19:42.200Z,101845.72
2019-02-22T19:22:12.828Z,101844.16
2019-02-22T19:24:43.600Z,101858.88
2019-02-22T19:27:14.130Z,101855.23
2019-02-22T19:29:44.991Z,101859.80
2019-02-22T19:32:15.643Z,101867.39
2019-02-22T19:34:46.392Z,101873.27
2019-02-22T19:37:16.754Z,101867.52
2019-02-22T19:39:47.525Z,101878.28
2019-02-22T19:42:18.158Z,101874.80
2019-02-22T19:44:50.548Z,101867.00
2019-02-22T19:47:22.848Z,101880.91
2019-02-22T19:49:53.369Z,101877.86
2019-02-22T19:52:24.240Z,101881.75
2019-02-22T19:54:54.997Z,101883.54
2019-02-22T19:57:25.630Z,101892.50
2019-02-22T19:59:56.622Z,101894.85
2019-02-22T20:02:27.035Z,101900.41
2019-02-22T20:04:57.807Z,101896.06
2019-02-22T20:07:28.474Z,101902.59
2019-02-22T20:09:58.411Z,101900.41
2019-02-22T20:12:29.296Z,101908.80
2019-02-22T20:15:00.005Z,101907.80
2019-02-22T20:17:30.758Z,101904.66
2019-02-22T20:20:01.515Z,101910.78
2019-02-22T20:22:32.672Z,101910.28
2019-02-22T20:25:05.903Z,101913.26
2019-02-22T20:27:36.227Z,101913.20
2019-02-22T20:30:10.134Z,101919.58
2019-02-22T20:32:40.580Z,101926.04
2019-02-22T20:35:13.801Z,101928.80
2019-02-22T20:37:51.953Z,101932.16
2019-02-22T20:40:16.218Z,101931.50
2019-02-22T20:42:47.143Z,101945.22
2019-02-22T20:45:17.948Z,101933.98
2019-02-22T20:47:50.162Z,101944.94
2019-02-22T20:50:21.013Z,101957.86
2019-02-22T20:52:52.424Z,101964.86
2019-02-22T20:55:24.062Z,101955.79
2019-02-22T20:57:55.074Z,101964.86
2019-02-22T21:00:30.380Z,101968.78
2019-02-22T21:03:00.895Z,101961.53
2019-02-22T21:05:31.633Z,101966.98
2019-02-22T21:08:02.178Z,101971.25
2019-02-22T21:10:33.052Z,101968.21
2019-02-22T21:13:03.891Z,101976.43
2019-02-22T21:15:34.337Z,101979.34
2019-02-22T21:18:15.634Z,101984.23
2019-02-22T21:20:37.192Z,101992.55
2019-02-22T21:23:07.982Z,101994.02
2019-02-22T21:25:38.393Z,101998.29
2019-02-22T21:28:09.031Z,101993.02
2019-02-22T21:30:39.800Z,101990.53
2019-02-22T21:33:10.449Z,101995.49
2019-02-22T21:35:41.311Z,101994.98
2019-02-22T21:38:11.956Z,102009.40
2019-02-22T21:40:42.713Z,102003.22
2019-02-22T21:43:13.242Z,102007.39
2019-02-22T21:45:44.116Z,102012.34
2019-02-22T21:48:14.973Z,102016.66
2019-02-22T21:50:45.709Z,102009.50
2019-02-22T21:53:16.378Z,102015.23
2019-02-22T21:55:47.218Z,102019.14
2019-02-22T21:58:17.866Z,102026.30
2019-02-22T22:00:49.541Z,102029.84
2019-02-22T22:03:20.416Z,102037.42
2019-02-22T22:05:51.049Z,102033.45
2019-02-22T22:08:21.923Z,102037.48
2019-02-22T22:10:52.780Z,102046.25
2019-02-22T22:13:23.534Z,102043.55
2019-02-22T22:15:54.168Z,102041.81
2019-02-22T22:18:24.936Z,102031.83
2019-02-22T22:20:55.675Z,102041.59
2019-02-22T22:23:26.445Z,102042.55
2019-02-22T22:25:57.097Z,102058.48
2019-02-22T22:28:27.835Z,102053.15
2019-02-22T22:30:58.612Z,102058.88
2019-02-22T22:33:29.242Z,102056.73
2019-02-22T22:35:59.909Z,102047.09
2019-02-22T22:38:30.766Z,102048.59
2019-02-22T22:41:01.608Z,102055.20
2019-02-22T22:43:32.374Z,102059.58
2019-02-22T22:46:03.028Z,102054.20
2019-02-22T22:48:33.761Z,102050.59
2019-02-22T22:51:04.634Z,102058.78
2019-02-22T22:53:35.272Z,102062.69
2019-02-22T22:56:05.937Z,102058.72
2019-02-22T22:58:36.674Z,102061.98
2019-02-22T23:01:09.933Z,102063.91
2019-02-22T23:03:40.450Z,102070.20
2019-02-22T23:06:11.305Z,102078.31
2019-02-22T23:08:41.939Z,102081.77
2019-02-22T23:11:12.608Z,102076.38
2019-02-22T23:13:43.465Z,102083.50
2019-02-22T23:16:14.204Z,102081.14
2019-02-22T23:18:44.854Z,102088.76
2019-02-22T23:21:15.520Z,102084.63
2019-02-22T23:23:46.379Z,102088.53
2019-02-22T23:26:17.130Z,102086.20
2019-02-22T23:28:47.887Z,102082.03
2019-02-22T23:31:18.537Z,102092.37
2019-02-22T23:33:49.392Z,102089.77
2019-02-22T23:36:20.129Z,102100.44
2019-02-22T23:38:50.797Z,102099.05
2019-02-22T23:41:20.861Z,102101.28
2019-02-22T23:43:51.387Z,102101.78
2019-02-22T23:46:22.035Z,102099.29
2019-02-22T23:48:52.890Z,102096.92
2019-02-22T23:51:23.752Z,102100.08
2019-02-22T23:53:54.503Z,102095.94
2019-02-22T23:56:25.052Z,102093.02
2019-02-22T23:58:55.907Z,102102.21
